Time;durP1;ratioP1;P1;durP2;ratioP2;P2;SDS_P1;SDS_P2;PMS_P1;PMS_P2;Temp;Humidity;BMP_temperature;BMP_pressure;BME280_temperature;BME280_humidity;BME280_pressure;Samples;Min_cycle;Max_cycle;Signal;HPM_P1;HPM_P2
2023/07/24 00:04:43;;;;;;;12.70;5.15;;;;;;;15.76;100.00;100241.66;10453161;28;20064;-67
2023/07/24 00:09:44;;;;;;;7.07;4.78;;;;;;;15.71;100.00;100242.53;10460342;28;20037;-66
2023/07/24 00:14:45;;;;;;;9.20;4.65;;;;;;;15.61;100.00;100237.97;10461084;28;20041;-67
2023/07/24 00:19:45;;;;;;;13.07;5.72;;;;;;;15.58;100.00;100243.31;10460998;28;20401;-66
2023/07/24 00:24:46;;;;;;;9.48;4.90;;;;;;;15.56;100.00;100237.22;10434813;28;20033;-66
2023/07/24 00:29:46;;;;;;;10.82;4.90;;;;;;;15.50;100.00;100231.78;10469813;28;20107;-66
2023/07/24 00:34:47;;;;;;;11.18;5.20;;;;;;;15.40;100.00;100234.72;10457768;28;20120;-66
2023/07/24 00:39:47;;;;;;;10.30;5.47;;;;;;;15.42;100.00;100249.13;10422417;28;20076;-67
2023/07/24 00:44:48;;;;;;;14.45;5.70;;;;;;;15.31;100.00;100223.47;10417696;28;20040;-67
2023/07/24 00:49:48;;;;;;;15.63;6.18;;;;;;;15.29;100.00;100234.03;10457322;28;20033;-67
2023/07/24 00:54:49;;;;;;;10.82;5.55;;;;;;;15.25;100.00;100230.22;10467838;28;20104;-67
2023/07/24 00:59:50;;;;;;;15.85;6.20;;;;;;;15.10;100.00;100202.75;10464031;28;20317;-67
2023/07/24 01:04:50;;;;;;;11.90;6.32;;;;;;;15.16;100.00;100217.38;10413864;28;20033;-67
2023/07/24 01:09:51;;;;;;;16.70;6.55;;;;;;;15.16;100.00;100223.72;10424977;28;20036;-67
2023/07/24 01:15:16;;;;;;;17.35;7.03;;;;;;;15.15;100.00;100224.84;10420469;28;20453;-67
2023/07/24 01:20:17;;;;;;;12.35;6.40;;;;;;;15.10;100.00;100225.75;10454483;28;20099;-67
2023/07/24 01:25:36;;;;;;;10.95;5.60;;;;;;;15.02;100.00;100243.06;10423376;28;20045;-67
2023/07/24 01:30:37;;;;;;;11.25;5.82;;;;;;;14.96;100.00;100215.72;10407888;28;20066;-67
2023/07/24 01:35:38;;;;;;;15.10;7.70;;;;;;;14.95;100.00;100206.59;10473569;28;20461;-67
2023/07/24 01:40:41;;;;;;;16.60;8.52;;;;;;;15.11;100.00;100194.16;10429165;28;20120;-67
2023/07/24 01:45:42;;;;;;;18.55;10.65;;;;;;;15.39;100.00;100198.97;10431022;28;20036;-67
2023/07/24 01:50:42;;;;;;;20.05;11.35;;;;;;;15.42;100.00;100185.31;10440845;28;20032;-67
2023/07/24 01:55:43;;;;;;;19.98;11.82;;;;;;;15.51;100.00;100191.00;10430573;28;20041;-67
2023/07/24 02:00:44;;;;;;;19.95;12.38;;;;;;;15.56;100.00;100179.78;10441271;28;20025;-67
2023/07/24 02:05:49;;;;;;;21.63;12.82;;;;;;;15.42;100.00;100143.72;10394689;28;20048;-67
2023/07/24 02:10:50;;;;;;;21.60;12.48;;;;;;;15.53;100.00;100155.44;10415796;28;20040;-67
2023/07/24 02:15:53;;;;;;;23.48;13.60;;;;;;;15.54;100.00;100146.81;10409192;28;20598;-66
2023/07/24 02:20:53;;;;;;;21.02;12.60;;;;;;;15.57;100.00;100156.47;10409110;28;20044;-66
2023/07/24 02:25:54;;;;;;;21.90;13.30;;;;;;;15.56;100.00;100151.22;10450621;28;20115;-67
2023/07/24 02:30:58;;;;;;;24.63;14.05;;;;;;;15.54;100.00;100135.72;10438836;28;20397;-67
2023/07/24 02:36:00;;;;;;;21.88;13.23;;;;;;;15.59;100.00;100153.41;10455286;28;20045;-66
2023/07/24 02:41:00;;;;;;;21.02;12.25;;;;;;;15.66;100.00;100153.81;10433545;28;20148;-67
2023/07/24 02:46:02;;;;;;;23.13;12.27;;;;;;;15.63;100.00;100140.56;10407845;28;20056;-67
2023/07/24 02:51:02;;;;;;;17.75;11.77;;;;;;;15.67;100.00;100161.03;10420346;28;20048;-67
2023/07/24 02:56:03;;;;;;;17.05;11.32;;;;;;;15.65;100.00;100166.06;10417091;28;20739;-67
2023/07/24 03:01:06;;;;;;;20.98;13.60;;;;;;;15.62;100.00;100158.34;10471923;28;20409;-66
2023/07/24 03:06:06;;;;;;;19.50;11.02;;;;;;;15.59;100.00;100158.97;10461757;28;20037;-66
2023/07/24 03:11:07;;;;;;;20.30;12.45;;;;;;;15.56;100.00;100165.09;10461080;28;20067;-67
2023/07/24 03:16:08;;;;;;;19.80;13.27;;;;;;;15.51;100.00;100175.16;10415675;28;20049;-67
2023/07/24 03:21:08;;;;;;;22.08;12.50;;;;;;;15.45;100.00;100179.16;10429185;28;20042;-67
2023/07/24 03:26:09;;;;;;;20.58;12.10;;;;;;;15.45;100.00;100172.78;10406515;28;20041;-67
2023/07/24 03:31:09;;;;;;;22.38;12.93;;;;;;;15.34;100.00;100163.81;10444284;28;20048;-67
2023/07/24 03:36:10;;;;;;;17.05;11.90;;;;;;;15.41;100.00;100164.25;10429602;28;20048;-66
2023/07/24 03:41:11;;;;;;;24.80;11.27;;;;;;;15.40;100.00;100145.97;10463316;28;20048;-66
2023/07/24 03:46:11;;;;;;;21.10;11.18;;;;;;;15.59;100.00;100157.00;10444295;28;20044;-67
2023/07/24 03:51:12;;;;;;;17.63;10.98;;;;;;;15.68;100.00;100168.22;10437935;28;20044;-67
2023/07/24 03:56:12;;;;;;;19.10;11.00;;;;;;;15.69;100.00;100158.78;10390209;28;20510;-67
2023/07/24 04:01:13;;;;;;;18.90;12.50;;;;;;;15.60;100.00;100146.72;10423419;28;20044;-67
2023/07/24 04:06:13;;;;;;;20.23;12.07;;;;;;;15.72;100.00;100160.94;10420627;28;20083;-67
2023/07/24 04:11:14;;;;;;;20.83;12.32;;;;;;;15.66;100.00;100156.59;10433010;28;20532;-67
2023/07/24 04:16:14;;;;;;;16.92;11.40;;;;;;;15.68;100.00;100149.59;10423899;28;20057;-66
2023/07/24 04:21:15;;;;;;;20.30;11.57;;;;;;;15.68;100.00;100157.09;10438062;28;20049;-66
2023/07/24 04:26:15;;;;;;;16.73;10.48;;;;;;;15.67;100.00;100147.97;10439681;28;20041;-66
2023/07/24 04:31:16;;;;;;;17.98;9.90;;;;;;;15.78;100.00;100145.03;10404704;28;20028;-67
2023/07/24 04:36:16;;;;;;;15.98;10.00;;;;;;;15.81;100.00;100139.66;10415158;28;20046;-67
2023/07/24 04:41:17;;;;;;;15.40;9.98;;;;;;;15.91;100.00;100128.38;10429020;28;20058;-67
2023/07/24 04:46:17;;;;;;;16.77;9.75;;;;;;;15.97;100.00;100140.19;10437898;28;20098;-66
2023/07/24 04:51:18;;;;;;;17.35;10.38;;;;;;;16.03;100.00;100152.03;10399963;28;20084;-66
2023/07/24 04:56:19;;;;;;;18.15;9.55;;;;;;;16.08;100.00;100138.03;10436855;28;20099;-67
2023/07/24 05:01:19;;;;;;;14.95;9.52;;;;;;;16.08;100.00;100124.16;10410979;28;20488;-67
2023/07/24 05:06:20;;;;;;;20.55;10.38;;;;;;;16.19;100.00;100116.44;10433104;28;20086;-67
2023/07/24 05:11:20;;;;;;;15.27;10.00;;;;;;;16.25;100.00;100117.97;10428615;28;20861;-67
2023/07/24 05:16:21;;;;;;;14.88;9.32;;;;;;;16.26;100.00;100108.50;10434349;28;20072;-66
2023/07/24 05:21:21;;;;;;;14.82;10.00;;;;;;;16.32;100.00;100105.28;10417969;28;20073;-66
2023/07/24 05:26:22;;;;;;;17.00;9.90;;;;;;;16.36;100.00;100107.47;10397001;28;20434;-67
2023/07/24 05:31:22;;;;;;;16.23;8.48;;;;;;;16.42;100.00;100111.78;10411175;28;20029;-67
2023/07/24 05:36:23;;;;;;;13.75;8.18;;;;;;;16.50;100.00;100094.38;10398767;28;20037;-67
2023/07/24 05:41:23;;;;;;;14.95;9.52;;;;;;;16.58;100.00;100112.22;10434566;28;20041;-67
2023/07/24 05:46:24;;;;;;;11.48;7.93;;;;;;;16.61;100.00;100095.75;10429260;28;20060;-67
2023/07/24 05:51:24;;;;;;;11.50;8.13;;;;;;;16.80;100.00;100115.03;10403830;28;20089;-67
2023/07/24 05:56:25;;;;;;;13.93;8.63;;;;;;;16.90;100.00;100116.78;10424345;28;20060;-67
2023/07/24 06:01:25;;;;;;;17.02;10.18;;;;;;;16.97;100.00;100119.97;10418314;28;20102;-66
2023/07/24 06:06:27;;;;;;;10.82;8.38;;;;;;;17.07;100.00;100125.25;10395337;28;20125;-66
2023/07/24 06:11:28;;;;;;;13.60;8.60;;;;;;;17.14;100.00;100124.81;10418216;28;20051;-66
2023/07/24 06:16:29;;;;;;;11.45;7.75;;;;;;;17.18;100.00;100131.41;10431162;28;20549;-66
2023/07/24 06:21:29;;;;;;;11.60;8.27;;;;;;;17.20;100.00;100133.84;10413757;28;20063;-67
2023/07/24 06:26:29;;;;;;;11.95;8.50;;;;;;;17.12;100.00;100113.19;10414928;28;20042;-67
2023/07/24 06:31:30;;;;;;;13.60;8.15;;;;;;;17.18;100.00;100134.19;10415256;28;20046;-68
2023/07/24 06:36:30;;;;;;;13.30;8.30;;;;;;;17.22;100.00;100126.00;10376262;28;20052;-67
2023/07/24 06:41:31;;;;;;;13.60;8.82;;;;;;;17.28;100.00;100125.56;10422967;28;20041;-67
2023/07/24 06:46:31;;;;;;;11.88;7.63;;;;;;;17.47;100.00;100125.34;10401285;28;20103;-66
2023/07/24 06:51:32;;;;;;;12.02;8.25;;;;;;;17.64;100.00;100121.81;10415554;28;20037;-67
2023/07/24 06:56:32;;;;;;;11.45;8.10;;;;;;;17.64;100.00;100115.44;10404891;28;20029;-66
2023/07/24 07:01:33;;;;;;;13.13;8.30;;;;;;;17.74;100.00;100127.13;10416967;28;20045;-67
2023/07/24 07:06:33;;;;;;;15.52;8.93;;;;;;;17.73;100.00;100127.44;10410497;28;20041;-67
2023/07/24 07:11:34;;;;;;;13.95;8.95;;;;;;;17.69;100.00;100120.84;10432701;28;20065;-67
2023/07/24 07:16:34;;;;;;;10.50;7.20;;;;;;;17.88;100.00;100129.00;10417128;28;20079;-66
2023/07/24 07:21:35;;;;;;;11.93;7.55;;;;;;;17.97;100.00;100123.47;10428050;28;20434;-66
2023/07/24 07:26:35;;;;;;;11.07;6.93;;;;;;;18.09;100.00;100118.13;10413910;28;20029;-66
2023/07/24 07:31:36;;;;;;;10.35;6.32;;;;;;;18.18;100.00;100121.72;10432427;28;20076;-67
2023/07/24 07:36:36;;;;;;;10.10;7.40;;;;;;;18.01;100.00;100093.84;10385197;28;20041;-67
2023/07/24 07:41:37;;;;;;;10.75;6.97;;;;;;;18.15;100.00;100116.81;10418663;28;20033;-67
2023/07/24 07:46:37;;;;;;;9.82;7.15;;;;;;;18.12;100.00;100109.91;10400539;28;20056;-66
2023/07/24 07:51:38;;;;;;;12.25;8.82;;;;;;;18.21;100.00;100109.09;10396938;28;20118;-67
2023/07/24 07:56:38;;;;;;;17.02;7.30;;;;;;;18.32;100.00;100114.06;10400312;28;20093;-67
2023/07/24 08:01:39;;;;;;;13.85;7.45;;;;;;;18.35;100.00;100112.56;10422089;28;20265;-66
2023/07/24 08:06:39;;;;;;;12.00;7.82;;;;;;;18.49;100.00;100112.44;10420468;28;20512;-67
2023/07/24 08:11:40;;;;;;;12.73;7.18;;;;;;;18.75;100.00;100092.94;10394024;28;20029;-67
2023/07/24 08:16:40;;;;;;;11.80;7.95;;;;;;;19.22;100.00;100106.19;10424318;28;20057;-66
2023/07/24 08:21:41;;;;;;;10.75;7.30;;;;;;;19.47;100.00;100102.53;10421046;28;20243;-67
2023/07/24 08:26:42;;;;;;;13.88;7.07;;;;;;;19.59;100.00;100092.63;10402121;28;20060;-67
2023/07/24 08:31:42;;;;;;;10.63;6.75;;;;;;;19.73;100.00;100098.84;10426246;28;20068;-67
2023/07/24 08:36:43;;;;;;;11.45;7.32;;;;;;;20.06;100.00;100092.63;10427679;28;20100;-67
2023/07/24 08:41:43;;;;;;;11.05;6.53;;;;;;;20.42;100.00;100086.44;10392307;28;20473;-67
2023/07/24 08:46:45;;;;;;;9.65;6.13;;;;;;;20.30;100.00;100087.22;10420819;28;20560;-67
2023/07/24 08:51:46;;;;;;;10.52;6.18;;;;;;;20.04;100.00;100086.56;10385219;28;20444;-67
2023/07/24 08:56:50;;;;;;;10.10;6.60;;;;;;;20.04;100.00;100078.16;10387731;28;20045;-67
2023/07/24 09:01:51;;;;;;;10.35;7.05;;;;;;;20.15;100.00;100068.22;10422641;28;20037;-67
2023/07/24 09:06:52;;;;;;;9.00;6.43;;;;;;;20.32;100.00;100076.50;10382183;28;20041;-67
2023/07/24 09:11:53;;;;;;;9.68;6.03;;;;;;;20.18;100.00;100063.97;10413596;28;20088;-66
2023/07/24 09:17:04;;;;;;;12.40;6.03;;;;;;;20.43;100.00;100062.13;10404539;28;20068;-66
2023/07/24 09:22:12;;;;;;;9.52;6.10;;;;;;;21.07;100.00;100058.94;10402573;28;20049;-67
2023/07/24 09:27:12;;;;;;;10.02;5.50;;;;;;;21.13;100.00;100060.34;10414509;28;20060;-67
2023/07/24 09:32:23;;;;;;;11.63;5.57;;;;;;;21.52;100.00;100048.94;10411548;28;20037;-66
2023/07/24 09:37:34;;;;;;;9.38;5.50;;;;;;;21.53;100.00;100058.94;10397515;28;20057;-67
2023/07/24 09:42:35;;;;;;;10.50;5.53;;;;;;;21.21;100.00;100053.03;10419282;28;20037;-67
2023/07/24 09:47:35;;;;;;;10.05;5.18;;;;;;;20.91;100.00;100060.75;10415496;28;20056;-67
2023/07/24 09:52:36;;;;;;;10.18;5.38;;;;;;;21.20;100.00;100059.78;10367044;28;20049;-67
2023/07/24 09:57:37;;;;;;;15.32;6.95;;;;;;;21.43;100.00;100056.59;10397859;28;20109;-67
2023/07/24 10:02:37;;;;;;;8.52;4.80;;;;;;;21.54;100.00;100047.41;10389978;28;20049;-68
2023/07/24 10:07:38;;;;;;;6.80;5.03;;;;;;;22.07;100.00;100036.28;10399640;28;20045;-68
2023/07/24 10:12:39;;;;;;;9.80;4.50;;;;;;;21.56;100.00;100022.66;10385939;28;20045;-67
2023/07/24 10:17:40;;;;;;;7.00;3.85;;;;;;;21.55;100.00;100026.63;10386007;28;20552;-67
2023/07/24 10:22:41;;;;;;;7.13;3.90;;;;;;;21.95;100.00;100020.31;10395027;28;20461;-67
2023/07/24 10:27:43;;;;;;;10.00;4.60;;;;;;;22.70;100.00;100013.38;10396843;28;20048;-67
2023/07/24 10:32:48;;;;;;;4.63;3.45;;;;;;;23.09;100.00;100001.59;10383800;28;20610;-67
2023/07/24 10:37:49;;;;;;;8.00;4.32;;;;;;;23.50;100.00;100003.09;10396669;28;20041;-67
2023/07/24 10:43:05;;;;;;;7.57;3.67;;;;;;;23.79;100.00;99992.53;10394711;28;20067;-68
2023/07/24 10:48:06;;;;;;;8.20;3.40;;;;;;;24.15;100.00;99979.31;10398571;28;20045;-68
2023/07/24 10:53:07;;;;;;;6.60;3.40;;;;;;;24.01;100.00;99990.25;10452188;28;20107;-68
2023/07/24 10:58:08;;;;;;;5.50;2.78;;;;;;;24.53;100.00;99977.72;10436510;28;20412;-67
2023/07/24 11:03:10;;;;;;;6.90;3.60;;;;;;;24.41;100.00;99980.66;10413542;28;20048;-67
2023/07/24 11:08:15;;;;;;;5.68;2.70;;;;;;;24.37;100.00;99972.97;10420257;28;20457;-67
2023/07/24 11:13:21;;;;;;;5.82;2.80;;;;;;;24.88;100.00;99959.91;10415583;28;20055;-67
2023/07/24 11:18:22;;;;;;;4.25;2.80;;;;;;;25.14;100.00;99960.00;10420355;28;20037;-67
2023/07/24 11:23:23;;;;;;;4.10;2.53;;;;;;;25.64;100.00;99929.03;10432984;28;20056;-68
2023/07/24 11:28:23;;;;;;;4.72;2.80;;;;;;;25.90;100.00;99931.03;10435246;28;20044;-67
2023/07/24 11:33:25;;;;;;;5.43;2.78;;;;;;;25.33;100.00;99925.31;10455682;28;20036;-67
2023/07/24 11:38:26;;;;;;;6.30;2.80;;;;;;;24.91;100.00;99933.84;10411975;28;20032;-67
2023/07/24 11:43:27;;;;;;;7.78;3.97;;;;;;;24.37;100.00;99936.41;10459942;28;20041;-68
2023/07/24 11:48:27;;;;;;;5.05;3.08;;;;;;;24.46;100.00;99949.44;10445393;28;20080;-67
2023/07/24 11:53:30;;;;;;;5.60;2.70;;;;;;;23.92;100.00;99943.47;10447389;28;20319;-67
2023/07/24 11:58:31;;;;;;;4.53;2.88;;;;;;;23.41;100.00;99965.94;10418217;28;20036;-67
2023/07/24 12:03:31;;;;;;;7.95;4.68;;;;;;;22.10;100.00;99973.94;10426526;28;20037;-67
2023/07/24 12:08:35;;;;;;;10.43;5.20;;;;;;;21.01;100.00;99995.97;10441339;28;20037;-66
2023/07/24 12:13:35;;;;;;;8.82;5.50;;;;;;;20.65;100.00;100000.28;10465581;28;20033;-66
2023/07/24 12:18:36;;;;;;;15.82;6.38;;;;;;;20.99;100.00;99987.09;10469075;28;20037;-67
2023/07/24 12:23:36;;;;;;;7.43;4.32;;;;;;;21.93;100.00;99980.63;10480753;28;20036;-66
2023/07/24 12:28:37;;;;;;;8.63;4.43;;;;;;;23.05;100.00;99983.84;10457844;28;20071;-68
2023/07/24 12:33:37;;;;;;;6.65;3.80;;;;;;;23.74;100.00;99942.22;10462462;28;20590;-66
2023/07/24 12:38:38;;;;;;;5.18;2.90;;;;;;;24.87;100.00;99932.97;10476158;28;21566;-67
2023/07/24 12:43:38;;;;;;;4.65;2.67;;;;;;;25.56;100.00;99914.00;10443668;28;20031;-67
2023/07/24 12:48:39;;;;;;;7.60;3.13;;;;;;;25.68;100.00;99903.72;10434635;28;20070;-67
2023/07/24 12:53:39;;;;;;;6.70;3.00;;;;;;;26.70;100.00;99911.06;10479076;28;20068;-67
2023/07/24 12:58:40;;;;;;;7.18;3.72;;;;;;;26.35;100.00;99920.72;10423441;28;20036;-67
2023/07/24 13:03:40;;;;;;;7.82;3.70;;;;;;;26.01;100.00;99907.81;10461446;28;20040;-67
2023/07/24 13:08:41;;;;;;;3.83;2.67;;;;;;;26.04;100.00;99895.75;10456107;28;20068;-67
2023/07/24 13:13:41;;;;;;;8.68;3.97;;;;;;;25.10;100.00;99914.06;10463531;28;20075;-68
2023/07/24 13:18:42;;;;;;;5.85;3.75;;;;;;;23.30;100.00;99967.66;10454080;28;20044;-68
2023/07/24 13:23:43;;;;;;;10.07;3.47;;;;;;;20.91;100.00;100015.97;10435377;28;20041;-66
2023/07/24 13:28:43;;;;;;;23.90;4.68;;;;;;;18.52;100.00;100017.00;10477676;28;20513;-65
2023/07/24 13:33:44;;;;;;;5.85;2.45;;;;;;;17.50;100.00;100002.25;10457742;28;20044;-66
2023/07/24 13:38:44;;;;;;;4.82;3.17;;;;;;;17.51;100.00;100017.00;10429297;28;20033;-66
2023/07/24 13:43:45;;;;;;;5.60;3.65;;;;;;;18.14;100.00;100015.69;10442593;28;20052;-67
2023/07/24 13:48:45;;;;;;;10.52;4.13;;;;;;;18.54;100.00;100020.28;10474450;28;20095;-67
2023/07/24 13:53:48;;;;;;;8.55;4.75;;;;;;;18.63;100.00;100028.66;10473431;28;20047;-68
2023/07/24 13:58:48;;;;;;;11.10;5.97;;;;;;;18.49;100.00;100023.25;10459647;28;20132;-67
2023/07/24 14:03:49;;;;;;;7.75;4.75;;;;;;;18.38;100.00;100011.63;10440201;28;20037;-67
2023/07/24 14:08:49;;;;;;;9.70;5.20;;;;;;;18.12;100.00;100000.44;10446380;28;20420;-66
2023/07/24 14:13:50;;;;;;;7.10;4.82;;;;;;;17.80;100.00;100002.50;10472049;28;20040;-67
2023/07/24 14:18:50;;;;;;;8.02;5.35;;;;;;;17.70;100.00;100000.03;10445323;28;20059;-66
2023/07/24 14:23:51;;;;;;;10.82;5.88;;;;;;;17.66;100.00;100008.19;10452332;28;20053;-67
2023/07/24 14:28:51;;;;;;;8.70;5.63;;;;;;;17.84;100.00;100002.69;10436128;28;20352;-66
2023/07/24 14:33:52;;;;;;;6.55;5.43;;;;;;;17.91;100.00;99973.25;10473121;28;20064;-66
2023/07/24 14:38:52;;;;;;;11.15;6.57;;;;;;;18.02;100.00;99981.28;10456314;28;20040;-66
2023/07/24 14:43:53;;;;;;;9.10;5.10;;;;;;;17.89;100.00;99986.66;10453928;28;20120;-67
2023/07/24 14:48:53;;;;;;;12.68;5.00;;;;;;;17.71;100.00;99994.16;10455967;28;20037;-66
2023/07/24 14:53:54;;;;;;;6.35;3.50;;;;;;;17.66;100.00;100021.31;10456547;28;20044;-66
2023/07/24 14:58:54;;;;;;;7.20;3.20;;;;;;;17.47;100.00;100022.38;10455293;28;20044;-66
2023/07/24 15:03:56;;;;;;;8.18;3.28;;;;;;;17.52;100.00;100022.22;10454945;28;20033;-65
2023/07/24 15:08:57;;;;;;;7.43;4.10;;;;;;;17.51;100.00;100030.91;10470414;28;20045;-65
2023/07/24 15:13:57;;;;;;;8.82;3.08;;;;;;;17.76;100.00;100029.38;10457620;28;20052;-66
2023/07/24 15:18:58;;;;;;;4.75;2.22;;;;;;;17.80;100.00;100021.16;10470918;28;20041;-66
2023/07/24 15:23:58;;;;;;;8.82;3.42;;;;;;;17.66;100.00;100033.25;10475627;28;20061;-66
2023/07/24 15:28:59;;;;;;;9.88;3.13;;;;;;;18.31;100.00;100023.25;10462577;28;20033;-67
2023/07/24 15:33:59;;;;;;;7.18;1.88;;;;;;;19.32;100.00;100031.31;10451748;28;20049;-66
2023/07/24 15:39:00;;;;;;;6.43;1.92;;;;;;;19.78;100.00;100033.59;10475409;28;20200;-67
2023/07/24 15:44:00;;;;;;;2.83;1.45;;;;;;;19.32;100.00;100050.03;10468780;28;20029;-66
2023/07/24 15:49:01;;;;;;;7.25;2.08;;;;;;;18.92;100.00;100065.06;10474659;28;20028;-67
2023/07/24 15:54:04;;;;;;;6.30;2.03;;;;;;;18.40;100.00;100075.38;10451536;28;20072;-67
2023/07/24 15:59:04;;;;;;;6.97;1.95;;;;;;;18.12;100.00;100097.94;10473002;28;20037;-66
2023/07/24 16:04:05;;;;;;;2.38;1.38;;;;;;;18.05;100.00;100100.41;10473739;28;20033;-66
2023/07/24 16:09:05;;;;;;;7.07;1.23;;;;;;;18.55;100.00;100100.81;10426671;28;20455;-66
2023/07/24 16:14:06;;;;;;;4.50;1.27;;;;;;;18.69;100.00;100119.34;10472694;28;20083;-66
2023/07/24 16:19:13;;;;;;;6.85;1.10;;;;;;;18.13;100.00;100117.13;10481059;28;20048;-67
2023/07/24 16:24:13;;;;;;;3.45;1.15;;;;;;;17.59;100.00;100110.84;10443436;28;20047;-67
2023/07/24 16:29:14;;;;;;;5.25;1.50;;;;;;;17.18;100.00;100142.53;10444351;28;20047;-66
2023/07/24 16:34:15;;;;;;;2.95;1.10;;;;;;;17.04;100.00;100147.31;10444750;28;20183;-66
2023/07/24 16:39:15;;;;;;;4.72;1.17;;;;;;;16.82;100.00;100151.72;10481576;28;20040;-66
2023/07/24 16:44:16;;;;;;;8.43;1.73;;;;;;;17.25;100.00;100159.56;10459333;28;20505;-66
2023/07/24 16:49:16;;;;;;;4.30;1.30;;;;;;;17.56;100.00;100153.22;10463215;28;20040;-66
2023/07/24 16:54:17;;;;;;;6.97;1.25;;;;;;;17.87;100.00;100158.81;10444317;28;20120;-66
2023/07/24 16:59:17;;;;;;;4.70;0.75;;;;;;;17.88;100.00;100165.19;10440844;28;20052;-66
2023/07/24 17:04:18;;;;;;;7.95;1.15;;;;;;;17.71;100.00;100171.47;10468394;28;20053;-66
2023/07/24 17:09:19;;;;;;;2.58;1.00;;;;;;;17.11;100.00;100187.44;10462782;28;20120;-66
2023/07/24 17:14:19;;;;;;;5.47;1.33;;;;;;;16.80;100.00;100198.44;10454545;28;20067;-66
2023/07/24 17:19:20;;;;;;;2.08;0.88;;;;;;;16.61;100.00;100206.91;10437647;28;20052;-67
2023/07/24 17:24:21;;;;;;;2.95;0.98;;;;;;;16.55;100.00;100214.53;10458084;28;20066;-67
2023/07/24 17:29:21;;;;;;;7.60;2.42;;;;;;;16.55;100.00;100208.16;10479406;28;20041;-66
2023/07/24 17:34:22;;;;;;;2.67;0.80;;;;;;;16.45;100.00;100203.63;10476284;28;20048;-67
2023/07/24 17:39:22;;;;;;;3.45;0.88;;;;;;;16.47;100.00;100208.88;10477607;28;20071;-67
2023/07/24 17:44:23;;;;;;;2.10;0.77;;;;;;;16.31;100.00;100206.44;10463583;28;20060;-66
2023/07/24 17:49:23;;;;;;;2.78;1.00;;;;;;;16.34;100.00;100218.88;10441440;28;20052;-66
2023/07/24 17:54:24;;;;;;;2.28;0.80;;;;;;;16.16;100.00;100223.38;10444114;28;20123;-67
2023/07/24 17:59:24;;;;;;;2.38;0.80;;;;;;;16.10;100.00;100225.47;10445139;28;20032;-66
2023/07/24 18:04:25;;;;;;;1.85;0.47;;;;;;;16.11;100.00;100226.28;10471940;28;20100;-66
2023/07/24 18:09:25;;;;;;;4.85;0.90;;;;;;;16.19;100.00;100231.13;10477407;28;20120;-65
2023/07/24 18:14:26;;;;;;;3.67;0.60;;;;;;;16.11;100.00;100231.84;10476477;28;20480;-67
2023/07/24 18:19:26;;;;;;;3.35;0.90;;;;;;;16.14;100.00;100248.72;10443678;28;20036;-66
2023/07/24 18:24:27;;;;;;;4.95;1.38;;;;;;;16.08;100.00;100249.09;10452154;28;20036;-66
2023/07/24 18:29:27;;;;;;;3.80;1.20;;;;;;;15.96;100.00;100252.38;10477355;28;20045;-66
2023/07/24 18:34:28;;;;;;;2.08;1.20;;;;;;;15.87;100.00;100260.56;10460400;28;20091;-66
2023/07/24 18:39:28;;;;;;;7.40;1.63;;;;;;;15.81;100.00;100267.34;10477467;28;20036;-66
2023/07/24 18:44:29;;;;;;;2.90;1.10;;;;;;;15.67;100.00;100266.47;10456095;28;20041;-66
2023/07/24 18:49:30;;;;;;;6.57;1.15;;;;;;;15.65;100.00;100280.66;10440616;28;20120;-67
2023/07/24 18:54:31;;;;;;;6.38;1.70;;;;;;;15.64;100.00;100280.94;10473866;28;20037;-65
2023/07/24 18:59:32;;;;;;;3.25;1.42;;;;;;;15.61;100.00;100284.34;10458209;28;20037;-66
2023/07/24 19:04:32;;;;;;;6.43;2.83;;;;;;;15.60;100.00;100299.31;10479764;28;20039;-66
2023/07/24 19:09:33;;;;;;;3.58;1.33;;;;;;;15.46;100.00;100305.66;10473189;28;20563;-66
2023/07/24 19:14:33;;;;;;;8.35;1.88;;;;;;;15.19;100.00;100319.34;10457380;28;20441;-67
2023/07/24 19:19:34;;;;;;;2.97;1.35;;;;;;;14.82;100.00;100326.47;10455091;28;20087;-67
2023/07/24 19:24:34;;;;;;;6.18;1.65;;;;;;;14.57;100.00;100317.34;10474144;28;20090;-65
2023/07/24 19:29:35;;;;;;;7.82;2.55;;;;;;;14.46;100.00;100329.66;10476635;28;20029;-66
2023/07/24 19:34:35;;;;;;;5.35;2.15;;;;;;;14.41;100.00;100327.75;10441744;28;20450;-66
2023/07/24 19:39:37;;;;;;;6.47;2.33;;;;;;;14.40;100.00;100334.41;10476271;28;20044;-67
2023/07/24 19:44:38;;;;;;;4.47;2.85;;;;;;;14.43;100.00;100338.56;10454479;28;20037;-66
2023/07/24 19:49:39;;;;;;;6.50;3.75;;;;;;;14.45;100.00;100348.22;10477117;28;20045;-66
2023/07/24 19:54:40;;;;;;;8.55;2.30;;;;;;;14.43;100.00;100356.00;10445571;28;20045;-66
2023/07/24 19:59:41;;;;;;;8.55;2.75;;;;;;;14.44;100.00;100357.63;10453791;28;20102;-66
2023/07/24 20:04:41;;;;;;;8.52;2.20;;;;;;;14.46;100.00;100365.66;10471789;28;20053;-66
2023/07/24 20:09:42;;;;;;;16.65;3.28;;;;;;;14.45;100.00;100361.22;10481791;28;20037;-66
2023/07/24 20:14:42;;;;;;;4.65;2.22;;;;;;;14.47;100.00;100358.97;10448175;28;20037;-66
2023/07/24 20:19:43;;;;;;;3.88;1.90;;;;;;;14.48;100.00;100369.78;10480302;28;20053;-64
2023/07/24 20:24:43;;;;;;;5.72;1.70;;;;;;;14.39;100.00;100370.72;10461828;28;20040;-66
2023/07/24 20:29:43;;;;;;;5.18;1.90;;;;;;;14.42;100.00;100378.44;10480907;28;20102;-66
2023/07/24 20:34:44;;;;;;;5.88;3.10;;;;;;;14.35;100.00;100375.19;10482102;28;20040;-66
2023/07/24 20:39:44;;;;;;;5.40;2.33;;;;;;;14.33;100.00;100386.56;10483870;28;20037;-66
2023/07/24 20:44:45;;;;;;;6.30;2.60;;;;;;;14.27;100.00;100391.31;10479147;28;20044;-66
2023/07/24 20:49:45;;;;;;;9.55;3.05;;;;;;;14.13;100.00;100398.63;10480173;28;20032;-66
2023/07/24 20:54:47;;;;;;;11.82;2.65;;;;;;;13.99;100.00;100403.97;10454144;28;20041;-65
2023/07/24 20:59:47;;;;;;;11.30;3.17;;;;;;;13.84;100.00;100416.00;10461511;28;20412;-66
2023/07/24 21:04:48;;;;;;;9.23;3.25;;;;;;;13.71;100.00;100411.94;10480191;28;20048;-66
2023/07/24 21:09:50;;;;;;;6.05;3.33;;;;;;;13.58;100.00;100423.66;10442711;28;20053;-66
2023/07/24 21:14:50;;;;;;;7.32;2.67;;;;;;;13.50;100.00;100413.19;10462124;28;20056;-65
2023/07/24 21:19:51;;;;;;;11.48;3.20;;;;;;;13.41;100.00;100418.47;10477972;28;20064;-66
2023/07/24 21:24:51;;;;;;;7.55;2.88;;;;;;;13.37;100.00;100424.84;10460208;28;20041;-66
2023/07/24 21:29:52;;;;;;;6.30;2.95;;;;;;;13.31;100.00;100421.28;10478112;28;20038;-66
2023/07/24 21:34:52;;;;;;;11.13;3.42;;;;;;;13.16;100.00;100421.34;10456896;28;20064;-66
2023/07/24 21:39:53;;;;;;;10.32;3.88;;;;;;;13.19;100.00;100434.56;10454758;28;21136;-66
2023/07/24 21:44:53;;;;;;;13.60;3.90;;;;;;;13.10;100.00;100440.72;10454174;28;20331;-66
2023/07/24 21:49:54;;;;;;;6.80;3.30;;;;;;;13.03;100.00;100437.41;10468715;28;20059;-66
2023/07/24 21:54:54;;;;;;;6.68;3.42;;;;;;;12.92;100.00;100449.63;10466999;28;20041;-66
2023/07/24 21:59:55;;;;;;;10.45;4.53;;;;;;;12.82;100.00;100444.94;10477749;28;20043;-66
2023/07/24 22:04:55;;;;;;;7.15;3.55;;;;;;;12.65;100.00;100428.69;10458372;28;20045;-66
2023/07/24 22:09:55;;;;;;;9.90;3.80;;;;;;;12.68;100.00;100443.84;10476735;28;20064;-66
2023/07/24 22:14:56;;;;;;;11.20;4.00;;;;;;;12.60;100.00;100448.00;10459162;28;20056;-66
2023/07/24 22:19:57;;;;;;;13.73;4.22;;;;;;;12.55;100.00;100449.94;10447573;28;20044;-66
2023/07/24 22:24:57;;;;;;;10.82;3.90;;;;;;;12.53;100.00;100461.28;10454651;28;20037;-66
2023/07/24 22:29:57;;;;;;;5.60;3.63;;;;;;;12.47;100.00;100454.91;10477803;28;20041;-66
2023/07/24 22:34:58;;;;;;;10.15;3.50;;;;;;;12.45;100.00;100461.84;10469646;28;20050;-65
2023/07/24 22:39:58;;;;;;;12.27;4.10;;;;;;;12.37;100.00;100454.94;10474459;28;20037;-66